Norfolk, Virginia
Traffic Map
Current Weather Conditions
Norfolk, Virginia
Clear
Clear
80°
Feels Like: 84°
Wind Chill: 80° Ceiling: Unl
Heat Index: 84° Visibility: 10mi
Dew Point: 72° Wind: 0mph
Humidity: 76% Direction: ° ()
Pressure: 30.05in Gusts: 0mph
Raw Report DataKORF 201451Z 00000KT 10SM CLR 27/22 A3005 RMK AO2 SLP174 T02670222 53010
Traffic Incident Summary
Active as of:
Severity:
Category:
InformationThere was an issue retrieving the traffic information for this location. Please try a different location or try again shortly.
Advertisements